Riding Mill, United Kingdom
Current Conditions -  °F | °C
As of 8:20 PM on Monday 22 Dec 2014 (Local Time) from EGNT Reporting Station
Light Rain Light Rain  
Wind Chill:   Ceiling: 1000
Heat Index:   Visibility: 4mi
Dew Point:   Wind: 9mph
Humidity: 100%   Direction: 280°W
Pressure: 29.65"   Gusts: NA
Location:  54.96°N, 1.99°W
Report Text: EGNT 222020Z 28008KT 6000 -RA BKN010 09/09 Q1004
Loading
Personal Weather Stations






























Interactive Weather Map New forecast layout! Learn more

10-Day Weather Forecast

Advertisements
Track Severe Weather on mobile